Point Of Rocks, MD (21777)

6:34 AM EST on January 22, 2017 (GMT -0500)
Canal Run | | Change Station

Elev 276 ft 39.28 °N, 77.53 °W | Updated 10 seconds ago

Overcast
Overcast
46.6 °F
Feels Like 47 °F
N
0.0
Wind Variable Wind from West
Gusts 0.0 mph

Today
High -- | Low -- °F
--% Chance of Precip.
Yesterday
High -- | Low -- °F
Precip. -- in
Pressure 29.71 in
Visibility 4.0 miles
Clouds Overcast 500 ft
Windchill 47 °F
Dew Point 46 °F
Humidity 99%
Rainfall 0.00 in
Snow Depth Not available.
7:24 AM 5:19 PM
Waning Crescent, 27% visible
METAR KFDK 221120Z AUTO 03003KT 4SM BR OVC005 07/07 A2971 RMK AO2
Pressure 29.71 in
Visibility 4.0 miles
Clouds Overcast 500 ft
Windchill 47 °F
Dew Point 46 °F
Humidity 99%
Rainfall 0.00 in
Snow Depth Not available.
7:24 AM 5:19 PM
Waning Crescent, 27% visible
METAR KFDK 221120Z AUTO 03003KT 4SM BR OVC005 07/07 A2971 RMK AO2

Get Your Daily Forecast Email!

Thanks for signing up!

Be on the lookout for a verification email in your inbox.

You'll start receiving the daily forecast at 8 AM.

×

10-Day Weather Forecast

Almanac

Astronomy

Jan. 22, 2017 Rise Set
Actual Time
Civil Twilight
Nautical Twilight
Astronomical Twilight
Moon
Length of Visible Light
Length of Day
Tomorrow will be .
, % of the Moon is Illuminated

Today's Extremes

State Highs State Lows

Community

WunderPhotos

Upload Photos

1,962,540 photos uploaded!

WunderBlog® & News

Nearby

Air Quality

  Air Quality AQ Index Pollutant
Not available.

Snow Depth

Station Depth Elevation

Earthquake Activity

City Distance Mag. Time & Date
Minimum magnitude displayed is 2.5.

Coastal Water Temperatures

Place Temperature

Stations

Nearby Weather Stations

Station Location Temp. Windchill Dew Point Humidity Wind Precip. Elev Updated Type
                   

Watches & Warnings

Dense Fog Advisory
Issued: 6:13 AM EST Jan. 22, 2017 – National Weather Service

... Dense fog advisory remains in effect until 10 am EST this
morning...

* visibilities... around one-quarter mile.

* Impacts... areas of dense fog will cause sudden reductions in
visibility and rapidly changing conditions.

Precautionary/preparedness actions...

A dense fog advisory means visibilities will frequently be
reduced to less than one quarter mile. If driving... slow down...
use your headlights... and leave plenty of distance ahead of you.





Small Craft Advisory
Issued: 3:18 AM EST Jan. 22, 2017 – National Weather Service

... Small Craft Advisory remains in effect from 6 PM this evening
to 1 PM EST Monday...

* winds... 18 to 33 knots within the Small Craft Advisory.

Precautionary/preparedness actions...

A Small Craft Advisory means winds of 18 to 33 knots are imminent
or occurring. Boaters operating smaller vessels should avoid
navigating in these conditions.